sensor_id;sensor_type;location;lat;lon;timestamp;pressure;altitude;pressure_sealevel;temperature;humidity
78407;BME280;67692;51.074;-1.790;2023-12-14T00:00:25;101227.59;;;4.59;85.78
78407;BME280;67692;51.074;-1.790;2023-12-14T00:02:51;101225.22;;;4.55;86.57
78407;BME280;67692;51.074;-1.790;2023-12-14T00:05:18;101235.34;;;4.58;85.83
78407;BME280;67692;51.074;-1.790;2023-12-14T00:07:45;101242.84;;;4.64;86.75
78407;BME280;67692;51.074;-1.790;2023-12-14T00:10:13;101256.34;;;4.69;87.60
78407;BME280;67692;51.074;-1.790;2023-12-14T00:12:39;101246.00;;;4.70;86.47
78407;BME280;67692;51.074;-1.790;2023-12-14T00:15:07;101245.84;;;4.75;87.13
78407;BME280;67692;51.074;-1.790;2023-12-14T00:17:34;101257.88;;;4.73;86.64
78407;BME280;67692;51.074;-1.790;2023-12-14T00:20:00;101254.84;;;4.62;87.35
78407;BME280;67692;51.074;-1.790;2023-12-14T00:22:28;101253.41;;;4.55;88.79
78407;BME280;67692;51.074;-1.790;2023-12-14T00:24:54;101244.09;;;4.52;89.39
78407;BME280;67692;51.074;-1.790;2023-12-14T00:27:22;101252.53;;;4.56;89.64
78407;BME280;67692;51.074;-1.790;2023-12-14T00:29:49;101253.53;;;4.52;88.38
78407;BME280;67692;51.074;-1.790;2023-12-14T00:32:15;101249.13;;;4.55;88.16
78407;BME280;67692;51.074;-1.790;2023-12-14T00:34:42;101260.31;;;4.53;88.59
78407;BME280;67692;51.074;-1.790;2023-12-14T00:37:09;101258.53;;;4.55;87.89
78407;BME280;67692;51.074;-1.790;2023-12-14T00:39:35;101263.13;;;4.45;89.55
78407;BME280;67692;51.074;-1.790;2023-12-14T00:42:02;101279.75;;;4.35;90.10
78407;BME280;67692;51.074;-1.790;2023-12-14T00:44:30;101280.78;;;4.29;90.42
78407;BME280;67692;51.074;-1.790;2023-12-14T00:46:57;101278.44;;;4.23;90.33
78407;BME280;67692;51.074;-1.790;2023-12-14T00:49:25;101287.56;;;4.30;89.85
78407;BME280;67692;51.074;-1.790;2023-12-14T00:51:53;101290.28;;;4.26;89.28
78407;BME280;67692;51.074;-1.790;2023-12-14T00:54:20;101294.97;;;4.13;89.67
78407;BME280;67692;51.074;-1.790;2023-12-14T00:56:46;101289.06;;;4.11;90.57
78407;BME280;67692;51.074;-1.790;2023-12-14T00:59:13;101292.31;;;4.16;91.22
78407;BME280;67692;51.074;-1.790;2023-12-14T01:01:41;101281.22;;;4.15;89.83
78407;BME280;67692;51.074;-1.790;2023-12-14T01:04:09;101279.25;;;4.24;90.08
78407;BME280;67692;51.074;-1.790;2023-12-14T01:06:37;101287.69;;;4.27;89.20
78407;BME280;67692;51.074;-1.790;2023-12-14T01:09:04;101281.50;;;4.33;88.88
78407;BME280;67692;51.074;-1.790;2023-12-14T01:11:31;101284.16;;;4.30;88.33
78407;BME280;67692;51.074;-1.790;2023-12-14T01:13:57;101299.59;;;4.28;88.04
78407;BME280;67692;51.074;-1.790;2023-12-14T01:16:26;101305.72;;;4.24;87.97
78407;BME280;67692;51.074;-1.790;2023-12-14T01:18:54;101302.44;;;4.21;88.46
78407;BME280;67692;51.074;-1.790;2023-12-14T01:21:20;101299.13;;;4.17;87.78
78407;BME280;67692;51.074;-1.790;2023-12-14T01:23:47;101297.44;;;4.16;87.82
78407;BME280;67692;51.074;-1.790;2023-12-14T01:26:14;101293.97;;;4.17;89.02
78407;BME280;67692;51.074;-1.790;2023-12-14T01:28:41;101305.84;;;4.21;88.20
78407;BME280;67692;51.074;-1.790;2023-12-14T01:31:07;101300.09;;;4.13;88.11
78407;BME280;67692;51.074;-1.790;2023-12-14T01:33:34;101315.75;;;4.05;88.74
78407;BME280;67692;51.074;-1.790;2023-12-14T01:36:02;101314.97;;;4.02;89.00
78407;BME280;67692;51.074;-1.790;2023-12-14T01:38:29;101319.16;;;4.04;88.77
78407;BME280;67692;51.074;-1.790;2023-12-14T01:40:56;101319.38;;;3.98;88.12
78407;BME280;67692;51.074;-1.790;2023-12-14T01:43:24;101322.00;;;3.97;88.34
78407;BME280;67692;51.074;-1.790;2023-12-14T01:45:51;101316.03;;;3.96;88.21
78407;BME280;67692;51.074;-1.790;2023-12-14T01:48:17;101311.47;;;4.06;88.46
78407;BME280;67692;51.074;-1.790;2023-12-14T01:50:44;101321.00;;;4.01;87.61
78407;BME280;67692;51.074;-1.790;2023-12-14T01:53:12;101321.88;;;4.00;88.90
78407;BME280;67692;51.074;-1.790;2023-12-14T01:55:39;101326.22;;;3.98;89.33
78407;BME280;67692;51.074;-1.790;2023-12-14T01:58:05;101327.78;;;4.02;89.18
78407;BME280;67692;51.074;-1.790;2023-12-14T02:00:38;101339.81;;;4.00;89.64
78407;BME280;67692;51.074;-1.790;2023-12-14T02:03:07;101326.44;;;3.92;90.60
78407;BME280;67692;51.074;-1.790;2023-12-14T02:05:34;101330.84;;;3.86;91.27
78407;BME280;67692;51.074;-1.790;2023-12-14T02:08:00;101334.47;;;3.79;90.94
78407;BME280;67692;51.074;-1.790;2023-12-14T02:10:28;101334.59;;;3.76;91.19
78407;BME280;67692;51.074;-1.790;2023-12-14T02:12:55;101328.69;;;3.73;91.68
78407;BME280;67692;51.074;-1.790;2023-12-14T02:15:21;101326.22;;;3.70;91.33
78407;BME280;67692;51.074;-1.790;2023-12-14T02:17:48;101335.63;;;3.69;92.88
78407;BME280;67692;51.074;-1.790;2023-12-14T02:20:15;101345.25;;;3.63;92.13
78407;BME280;67692;51.074;-1.790;2023-12-14T02:22:52;101344.63;;;3.54;91.54
78407;BME280;67692;51.074;-1.790;2023-12-14T02:25:20;101348.69;;;3.60;92.99
78407;BME280;67692;51.074;-1.790;2023-12-14T02:27:47;101351.34;;;3.57;91.67
78407;BME280;67692;51.074;-1.790;2023-12-14T02:30:14;101359.31;;;3.48;92.40
78407;BME280;67692;51.074;-1.790;2023-12-14T02:32:41;101353.31;;;3.49;92.76
78407;BME280;67692;51.074;-1.790;2023-12-14T02:35:08;101350.13;;;3.41;92.08
78407;BME280;67692;51.074;-1.790;2023-12-14T02:37:35;101348.31;;;3.44;93.07
78407;BME280;67692;51.074;-1.790;2023-12-14T02:40:06;101343.19;;;3.44;93.42
78407;BME280;67692;51.074;-1.790;2023-12-14T02:42:33;101339.06;;;3.40;92.81
78407;BME280;67692;51.074;-1.790;2023-12-14T02:45:00;101330.53;;;3.40;93.26
78407;BME280;67692;51.074;-1.790;2023-12-14T02:47:27;101339.00;;;3.42;92.89
78407;BME280;67692;51.074;-1.790;2023-12-14T02:49:54;101335.47;;;3.46;94.23
78407;BME280;67692;51.074;-1.790;2023-12-14T02:52:21;101332.03;;;3.47;92.89
78407;BME280;67692;51.074;-1.790;2023-12-14T02:54:48;101343.88;;;3.51;93.46
78407;BME280;67692;51.074;-1.790;2023-12-14T02:57:16;101350.81;;;3.46;92.92
78407;BME280;67692;51.074;-1.790;2023-12-14T02:59:42;101351.50;;;3.52;93.25
78407;BME280;67692;51.074;-1.790;2023-12-14T03:02:09;101351.56;;;3.51;93.60
78407;BME280;67692;51.074;-1.790;2023-12-14T03:04:37;101354.84;;;3.54;93.58
78407;BME280;67692;51.074;-1.790;2023-12-14T03:07:04;101353.75;;;3.63;93.95
78407;BME280;67692;51.074;-1.790;2023-12-14T03:09:30;101346.75;;;3.68;92.06
78407;BME280;67692;51.074;-1.790;2023-12-14T03:11:57;101350.03;;;3.73;92.66
78407;BME280;67692;51.074;-1.790;2023-12-14T03:14:25;101365.31;;;3.76;94.00
78407;BME280;67692;51.074;-1.790;2023-12-14T03:16:52;101359.31;;;3.76;93.57
78407;BME280;67692;51.074;-1.790;2023-12-14T03:19:18;101361.88;;;3.76;93.56
78407;BME280;67692;51.074;-1.790;2023-12-14T03:21:45;101367.00;;;3.77;94.21
78407;BME280;67692;51.074;-1.790;2023-12-14T03:24:11;101366.84;;;3.82;93.88
78407;BME280;67692;51.074;-1.790;2023-12-14T03:26:38;101380.13;;;3.95;92.14
78407;BME280;67692;51.074;-1.790;2023-12-14T03:29:05;101369.00;;;3.96;91.86
78407;BME280;67692;51.074;-1.790;2023-12-14T03:31:34;101365.38;;;4.01;92.98
78407;BME280;67692;51.074;-1.790;2023-12-14T03:34:01;101380.88;;;3.98;93.68
78407;BME280;67692;51.074;-1.790;2023-12-14T03:36:28;101383.22;;;4.06;93.66
78407;BME280;67692;51.074;-1.790;2023-12-14T03:38:56;101390.78;;;4.09;93.40
78407;BME280;67692;51.074;-1.790;2023-12-14T03:41:22;101385.47;;;4.15;93.51
78407;BME280;67692;51.074;-1.790;2023-12-14T03:43:49;101395.63;;;4.18;91.65
78407;BME280;67692;51.074;-1.790;2023-12-14T03:46:16;101387.75;;;4.24;92.34
78407;BME280;67692;51.074;-1.790;2023-12-14T03:48:43;101391.09;;;4.26;90.86
78407;BME280;67692;51.074;-1.790;2023-12-14T03:51:10;101392.00;;;4.25;92.25
78407;BME280;67692;51.074;-1.790;2023-12-14T03:53:37;101386.88;;;4.25;92.66
78407;BME280;67692;51.074;-1.790;2023-12-14T03:56:04;101387.84;;;4.21;91.82
78407;BME280;67692;51.074;-1.790;2023-12-14T03:58:30;101393.88;;;4.18;91.73
78407;BME280;67692;51.074;-1.790;2023-12-14T04:00:57;101387.81;;;4.23;91.88
78407;BME280;67692;51.074;-1.790;2023-12-14T04:03:24;101384.31;;;4.25;92.22
78407;BME280;67692;51.074;-1.790;2023-12-14T04:05:52;101382.78;;;4.18;91.31
78407;BME280;67692;51.074;-1.790;2023-12-14T04:08:18;101379.84;;;4.30;90.68
78407;BME280;67692;51.074;-1.790;2023-12-14T04:10:45;101382.13;;;4.39;89.96
78407;BME280;67692;51.074;-1.790;2023-12-14T04:13:12;101380.34;;;4.41;91.42
78407;BME280;67692;51.074;-1.790;2023-12-14T04:15:38;101387.38;;;4.36;91.72
78407;BME280;67692;51.074;-1.790;2023-12-14T04:18:06;101394.28;;;4.34;92.19
78407;BME280;67692;51.074;-1.790;2023-12-14T04:20:33;101399.31;;;4.37;92.50
78407;BME280;67692;51.074;-1.790;2023-12-14T04:23:01;101409.56;;;4.37;92.45
78407;BME280;67692;51.074;-1.790;2023-12-14T04:25:28;101404.31;;;4.40;92.75
78407;BME280;67692;51.074;-1.790;2023-12-14T04:27:54;101401.66;;;4.43;91.85
78407;BME280;67692;51.074;-1.790;2023-12-14T04:30:21;101402.44;;;4.45;92.52
78407;BME280;67692;51.074;-1.790;2023-12-14T04:32:48;101389.53;;;4.48;92.07
78407;BME280;67692;51.074;-1.790;2023-12-14T04:35:14;101399.88;;;4.45;91.85
78407;BME280;67692;51.074;-1.790;2023-12-14T04:37:41;101406.63;;;4.48;91.38
78407;BME280;67692;51.074;-1.790;2023-12-14T04:40:10;101407.56;;;4.45;91.07
78407;BME280;67692;51.074;-1.790;2023-12-14T04:42:37;101402.66;;;4.39;90.28
78407;BME280;67692;51.074;-1.790;2023-12-14T04:45:04;101404.53;;;4.34;91.19
78407;BME280;67692;51.074;-1.790;2023-12-14T04:47:31;101413.78;;;4.38;91.29
78407;BME280;67692;51.074;-1.790;2023-12-14T04:49:58;101417.88;;;4.44;92.32
78407;BME280;67692;51.074;-1.790;2023-12-14T04:52:25;101423.72;;;4.49;92.42
78407;BME280;67692;51.074;-1.790;2023-12-14T04:54:51;101426.31;;;4.47;92.31
78407;BME280;67692;51.074;-1.790;2023-12-14T04:57:19;101423.94;;;4.41;91.71
78407;BME280;67692;51.074;-1.790;2023-12-14T04:59:46;101427.34;;;4.42;91.93
78407;BME280;67692;51.074;-1.790;2023-12-14T05:02:13;101425.63;;;4.42;92.25
78407;BME280;67692;51.074;-1.790;2023-12-14T05:04:39;101423.75;;;4.47;92.65
78407;BME280;67692;51.074;-1.790;2023-12-14T05:07:06;101426.41;;;4.44;92.68
78407;BME280;67692;51.074;-1.790;2023-12-14T05:09:33;101428.09;;;4.45;93.00
78407;BME280;67692;51.074;-1.790;2023-12-14T05:11:59;101426.41;;;4.44;92.66
78407;BME280;67692;51.074;-1.790;2023-12-14T05:14:27;101429.56;;;4.53;91.94
78407;BME280;67692;51.074;-1.790;2023-12-14T05:16:54;101435.50;;;4.55;92.31
78407;BME280;67692;51.074;-1.790;2023-12-14T05:19:21;101438.91;;;4.55;93.03
78407;BME280;67692;51.074;-1.790;2023-12-14T05:21:48;101442.44;;;4.51;93.38
78407;BME280;67692;51.074;-1.790;2023-12-14T05:24:14;101439.19;;;4.46;93.42
78407;BME280;67692;51.074;-1.790;2023-12-14T05:26:41;101443.41;;;4.47;93.25
78407;BME280;67692;51.074;-1.790;2023-12-14T05:29:08;101456.06;;;4.53;93.27
78407;BME280;67692;51.074;-1.790;2023-12-14T05:31:36;101452.44;;;4.59;93.54
78407;BME280;67692;51.074;-1.790;2023-12-14T05:34:03;101453.25;;;4.61;93.69
78407;BME280;67692;51.074;-1.790;2023-12-14T05:36:30;101442.09;;;4.62;93.63
78407;BME280;67692;51.074;-1.790;2023-12-14T05:38:56;101437.00;;;4.60;92.25
78407;BME280;67692;51.074;-1.790;2023-12-14T05:41:23;101437.84;;;4.61;93.51
78407;BME280;67692;51.074;-1.790;2023-12-14T05:43:50;101434.38;;;4.63;93.71
78407;BME280;67692;51.074;-1.790;2023-12-14T05:46:21;101449.78;;;4.62;93.65
78407;BME280;67692;51.074;-1.790;2023-12-14T05:48:49;101447.22;;;4.62;93.25
78407;BME280;67692;51.074;-1.790;2023-12-14T05:51:26;101449.00;;;4.60;93.84
78407;BME280;67692;51.074;-1.790;2023-12-14T05:53:53;101442.97;;;4.61;92.82
78407;BME280;67692;51.074;-1.790;2023-12-14T05:56:19;101448.09;;;4.61;93.76
78407;BME280;67692;51.074;-1.790;2023-12-14T05:58:46;101460.81;;;4.65;94.36
78407;BME280;67692;51.074;-1.790;2023-12-14T06:01:16;101446.44;;;4.60;93.32
78407;BME280;67692;51.074;-1.790;2023-12-14T06:03:43;101435.34;;;4.59;94.05
78407;BME280;67692;51.074;-1.790;2023-12-14T06:06:11;101446.31;;;4.63;94.12
78407;BME280;67692;51.074;-1.790;2023-12-14T06:08:39;101434.44;;;4.60;94.07
78407;BME280;67692;51.074;-1.790;2023-12-14T06:11:06;101446.31;;;4.63;95.13
78407;BME280;67692;51.074;-1.790;2023-12-14T06:13:33;101445.25;;;4.70;95.31
78407;BME280;67692;51.074;-1.790;2023-12-14T06:15:59;101447.94;;;4.67;94.09
78407;BME280;67692;51.074;-1.790;2023-12-14T06:18:26;101449.75;;;4.63;94.64
78407;BME280;67692;51.074;-1.790;2023-12-14T06:20:52;101454.97;;;4.60;94.54
78407;BME280;67692;51.074;-1.790;2023-12-14T06:23:20;101450.00;;;4.56;95.34
78407;BME280;67692;51.074;-1.790;2023-12-14T06:25:47;101467.72;;;4.62;96.07
78407;BME280;67692;51.074;-1.790;2023-12-14T06:28:14;101474.41;;;4.67;95.80
78407;BME280;67692;51.074;-1.790;2023-12-14T06:30:41;101467.56;;;4.68;95.44
78407;BME280;67692;51.074;-1.790;2023-12-14T06:33:07;101476.72;;;4.75;94.93
78407;BME280;67692;51.074;-1.790;2023-12-14T06:35:34;101480.06;;;4.77;94.30
78407;BME280;67692;51.074;-1.790;2023-12-14T06:38:00;101474.94;;;4.77;95.09
78407;BME280;67692;51.074;-1.790;2023-12-14T06:40:28;101481.78;;;4.78;94.49
78407;BME280;67692;51.074;-1.790;2023-12-14T06:42:55;101488.66;;;4.76;95.11
78407;BME280;67692;51.074;-1.790;2023-12-14T06:45:22;101492.03;;;4.78;95.11
78407;BME280;67692;51.074;-1.790;2023-12-14T06:47:48;101497.06;;;4.81;95.73
78407;BME280;67692;51.074;-1.790;2023-12-14T06:50:15;101495.41;;;4.80;94.94
78407;BME280;67692;51.074;-1.790;2023-12-14T06:52:42;101505.44;;;4.86;94.51
78407;BME280;67692;51.074;-1.790;2023-12-14T06:55:08;101500.16;;;4.91;95.84
78407;BME280;67692;51.074;-1.790;2023-12-14T06:57:37;101496.69;;;4.93;96.74
78407;BME280;67692;51.074;-1.790;2023-12-14T07:00:05;101504.44;;;4.90;96.59
78407;BME280;67692;51.074;-1.790;2023-12-14T07:02:31;101505.28;;;4.92;97.57
78407;BME280;67692;51.074;-1.790;2023-12-14T07:04:58;101499.25;;;4.93;96.76
78407;BME280;67692;51.074;-1.790;2023-12-14T07:07:25;101497.47;;;4.95;96.76
78407;BME280;67692;51.074;-1.790;2023-12-14T07:09:51;101491.38;;;4.98;97.19
78407;BME280;67692;51.074;-1.790;2023-12-14T07:12:18;101499.09;;;4.98;97.54
78407;BME280;67692;51.074;-1.790;2023-12-14T07:14:46;101492.28;;;4.97;98.13
78407;BME280;67692;51.074;-1.790;2023-12-14T07:17:12;101498.03;;;5.03;98.03
78407;BME280;67692;51.074;-1.790;2023-12-14T07:19:39;101494.56;;;5.04;97.86
78407;BME280;67692;51.074;-1.790;2023-12-14T07:22:06;101499.91;;;4.98;99.43
78407;BME280;67692;51.074;-1.790;2023-12-14T07:24:32;101496.56;;;4.96;98.94
78407;BME280;67692;51.074;-1.790;2023-12-14T07:26:59;101487.75;;;5.03;97.84
78407;BME280;67692;51.074;-1.790;2023-12-14T07:29:26;101507.34;;;5.06;97.93
78407;BME280;67692;51.074;-1.790;2023-12-14T07:31:54;101498.13;;;5.00;97.76
78407;BME280;67692;51.074;-1.790;2023-12-14T07:34:20;101512.59;;;5.03;97.90
78407;BME280;67692;51.074;-1.790;2023-12-14T07:36:47;101520.41;;;5.00;98.08
78407;BME280;67692;51.074;-1.790;2023-12-14T07:39:13;101527.31;;;4.98;98.68
78407;BME280;67692;51.074;-1.790;2023-12-14T07:41:40;101528.88;;;5.02;99.99
78407;BME280;67692;51.074;-1.790;2023-12-14T07:44:07;101529.00;;;4.99;98.96
78407;BME280;67692;51.074;-1.790;2023-12-14T07:46:33;101529.72;;;5.02;97.79
78407;BME280;67692;51.074;-1.790;2023-12-14T07:49:03;101519.34;;;5.05;98.51
78407;BME280;67692;51.074;-1.790;2023-12-14T07:51:30;101533.97;;;5.03;97.90
78407;BME280;67692;51.074;-1.790;2023-12-14T07:53:56;101523.06;;;4.97;98.06
78407;BME280;67692;51.074;-1.790;2023-12-14T07:56:23;101526.44;;;4.99;98.55
78407;BME280;67692;51.074;-1.790;2023-12-14T07:58:52;101523.06;;;4.97;99.41
78407;BME280;67692;51.074;-1.790;2023-12-14T08:01:19;101526.44;;;4.99;99.60
78407;BME280;67692;51.074;-1.790;2023-12-14T08:03:46;101528.22;;;4.97;99.57
78407;BME280;67692;51.074;-1.790;2023-12-14T08:06:14;101528.94;;;5.00;100.00
78407;BME280;67692;51.074;-1.790;2023-12-14T08:08:40;101529.72;;;5.02;100.00
78407;BME280;67692;51.074;-1.790;2023-12-14T08:11:07;101534.81;;;5.04;100.00
78407;BME280;67692;51.074;-1.790;2023-12-14T08:13:34;101532.25;;;5.04;100.00
78407;BME280;67692;51.074;-1.790;2023-12-14T08:16:01;101525.31;;;5.06;100.00
78407;BME280;67692;51.074;-1.790;2023-12-14T08:18:27;101526.19;;;5.06;100.00
78407;BME280;67692;51.074;-1.790;2023-12-14T08:20:54;101525.19;;;5.11;100.00
78407;BME280;67692;51.074;-1.790;2023-12-14T08:23:22;101536.13;;;5.16;100.00
78407;BME280;67692;51.074;-1.790;2023-12-14T08:25:50;101530.22;;;5.14;100.00
78407;BME280;67692;51.074;-1.790;2023-12-14T08:28:17;101528.53;;;5.13;100.00
78407;BME280;67692;51.074;-1.790;2023-12-14T08:30:43;101521.63;;;5.15;100.00
78407;BME280;67692;51.074;-1.790;2023-12-14T08:33:10;101526.03;;;5.11;100.00
78407;BME280;67692;51.074;-1.790;2023-12-14T08:35:37;101535.97;;;5.20;100.00
78407;BME280;67692;51.074;-1.790;2023-12-14T08:38:03;101536.09;;;5.17;99.91
78407;BME280;67692;51.074;-1.790;2023-12-14T08:40:31;101541.97;;;5.21;100.00
78407;BME280;67692;51.074;-1.790;2023-12-14T08:42:58;101541.88;;;5.24;99.87
78407;BME280;67692;51.074;-1.790;2023-12-14T08:45:25;101543.38;;;5.29;100.00
78407;BME280;67692;51.074;-1.790;2023-12-14T08:47:51;101540.09;;;5.26;98.95
78407;BME280;67692;51.074;-1.790;2023-12-14T08:50:18;101547.63;;;5.30;99.68
78407;BME280;67692;51.074;-1.790;2023-12-14T08:52:45;101548.47;;;5.31;100.00
78407;BME280;67692;51.074;-1.790;2023-12-14T08:55:12;101549.19;;;5.36;100.00
78407;BME280;67692;51.074;-1.790;2023-12-14T08:57:41;101541.38;;;5.39;100.00
78407;BME280;67692;51.074;-1.790;2023-12-14T09:00:08;101549.97;;;5.38;100.00
78407;BME280;67692;51.074;-1.790;2023-12-14T09:02:35;101544.91;;;5.35;100.00
78407;BME280;67692;51.074;-1.790;2023-12-14T09:05:02;101538.75;;;5.41;100.00
78407;BME280;67692;51.074;-1.790;2023-12-14T09:07:29;101544.44;;;5.49;100.00
78407;BME280;67692;51.074;-1.790;2023-12-14T09:09:56;101543.47;;;5.53;100.00
78407;BME280;67692;51.074;-1.790;2023-12-14T09:12:23;101542.50;;;5.55;100.00
78407;BME280;67692;51.074;-1.790;2023-12-14T09:14:51;101537.31;;;5.57;100.00
78407;BME280;67692;51.074;-1.790;2023-12-14T09:17:17;101539.72;;;5.61;100.00
78407;BME280;67692;51.074;-1.790;2023-12-14T09:19:44;101543.91;;;5.64;99.55
78407;BME280;67692;51.074;-1.790;2023-12-14T09:22:11;101551.47;;;5.68;99.73
78407;BME280;67692;51.074;-1.790;2023-12-14T09:24:37;101552.25;;;5.71;99.97
78407;BME280;67692;51.074;-1.790;2023-12-14T09:27:04;101564.09;;;5.75;99.94
78407;BME280;67692;51.074;-1.790;2023-12-14T09:29:31;101552.16;;;5.74;100.00
78407;BME280;67692;51.074;-1.790;2023-12-14T09:31:59;101554.72;;;5.74;98.87
78407;BME280;67692;51.074;-1.790;2023-12-14T09:34:25;101560.50;;;5.80;98.67
78407;BME280;67692;51.074;-1.790;2023-12-14T09:36:52;101565.47;;;5.85;99.53
78407;BME280;67692;51.074;-1.790;2023-12-14T09:39:19;101560.22;;;5.88;98.82
78407;BME280;67692;51.074;-1.790;2023-12-14T09:41:47;101567.91;;;5.88;98.88
78407;BME280;67692;51.074;-1.790;2023-12-14T09:44:13;101563.59;;;5.90;98.32
78407;BME280;67692;51.074;-1.790;2023-12-14T09:46:41;101563.47;;;5.93;97.82
78407;BME280;67692;51.074;-1.790;2023-12-14T09:49:15;101561.59;;;5.98;98.31
78407;BME280;67692;51.074;-1.790;2023-12-14T09:51:43;101565.66;;;6.04;97.55
78407;BME280;67692;51.074;-1.790;2023-12-14T09:54:10;101563.88;;;6.06;97.51
78407;BME280;67692;51.074;-1.790;2023-12-14T09:56:45;101568.13;;;6.07;99.24
78407;BME280;67692;51.074;-1.790;2023-12-14T09:59:12;101560.38;;;6.08;98.76
78407;BME280;67692;51.074;-1.790;2023-12-14T10:01:39;101561.16;;;6.10;99.76
78407;BME280;67692;51.074;-1.790;2023-12-14T10:04:08;101567.97;;;6.11;100.00
78407;BME280;67692;51.074;-1.790;2023-12-14T10:06:37;101567.69;;;6.19;99.83
78407;BME280;67692;51.074;-1.790;2023-12-14T10:09:04;101571.00;;;6.22;100.00
78407;BME280;67692;51.074;-1.790;2023-12-14T10:11:34;101566.66;;;6.24;98.92
78407;BME280;67692;51.074;-1.790;2023-12-14T10:14:01;101577.25;;;6.39;100.00
78407;BME280;67692;51.074;-1.790;2023-12-14T10:16:28;101582.09;;;6.46;100.00
78407;BME280;67692;51.074;-1.790;2023-12-14T10:18:56;101581.88;;;6.52;100.00
78407;BME280;67692;51.074;-1.790;2023-12-14T10:21:23;101592.84;;;6.57;100.00
78407;BME280;67692;51.074;-1.790;2023-12-14T10:23:52;101579.78;;;6.62;100.00
78407;BME280;67692;51.074;-1.790;2023-12-14T10:26:22;101583.88;;;6.68;100.00
78407;BME280;67692;51.074;-1.790;2023-12-14T10:28:49;101588.97;;;6.69;100.00
78407;BME280;67692;51.074;-1.790;2023-12-14T10:31:17;101604.16;;;6.75;100.00
78407;BME280;67692;51.074;-1.790;2023-12-14T10:33:45;101604.16;;;6.75;100.00
78407;BME280;67692;51.074;-1.790;2023-12-14T10:36:12;101602.41;;;6.76;100.00
78407;BME280;67692;51.074;-1.790;2023-12-14T10:38:40;101608.34;;;6.78;100.00
78407;BME280;67692;51.074;-1.790;2023-12-14T10:41:11;101603.13;;;6.79;100.00
78407;BME280;67692;51.074;-1.790;2023-12-14T10:43:41;101600.34;;;6.85;100.00
78407;BME280;67692;51.074;-1.790;2023-12-14T10:46:09;101599.44;;;6.86;100.00
78407;BME280;67692;51.074;-1.790;2023-12-14T10:48:36;101601.75;;;6.93;100.00
78407;BME280;67692;51.074;-1.790;2023-12-14T10:51:03;101593.09;;;6.95;100.00
78407;BME280;67692;51.074;-1.790;2023-12-14T10:53:31;101594.59;;;7.01;100.00
78407;BME280;67692;51.074;-1.790;2023-12-14T10:55:59;101598.59;;;7.08;100.00
78407;BME280;67692;51.074;-1.790;2023-12-14T10:58:44;101591.53;;;7.13;100.00
78407;BME280;67692;51.074;-1.790;2023-12-14T11:01:13;101585.28;;;7.19;100.00
78407;BME280;67692;51.074;-1.790;2023-12-14T11:03:41;101591.16;;;7.22;100.00
78407;BME280;67692;51.074;-1.790;2023-12-14T11:06:20;101580.63;;;7.28;100.00
78407;BME280;67692;51.074;-1.790;2023-12-14T11:08:47;101582.16;;;7.32;100.00
78407;BME280;67692;51.074;-1.790;2023-12-14T11:11:15;101580.28;;;7.36;100.00
78407;BME280;67692;51.074;-1.790;2023-12-14T11:13:51;101579.22;;;7.41;100.00
78407;BME280;67692;51.074;-1.790;2023-12-14T11:16:20;101573.78;;;7.47;100.00
78407;BME280;67692;51.074;-1.790;2023-12-14T11:18:47;101571.88;;;7.53;100.00
78407;BME280;67692;51.074;-1.790;2023-12-14T11:21:18;101565.84;;;7.52;100.00
78407;BME280;67692;51.074;-1.790;2023-12-14T11:23:47;101563.09;;;7.57;100.00
78407;BME280;67692;51.074;-1.790;2023-12-14T11:26:20;101571.47;;;7.62;100.00
78407;BME280;67692;51.074;-1.790;2023-12-14T11:28:50;101565.28;;;7.66;100.00
78407;BME280;67692;51.074;-1.790;2023-12-14T11:31:16;101560.84;;;7.69;100.00
78407;BME280;67692;51.074;-1.790;2023-12-14T11:33:43;101564.88;;;7.75;100.00
78407;BME280;67692;51.074;-1.790;2023-12-14T11:36:13;101571.72;;;7.76;100.00
78407;BME280;67692;51.074;-1.790;2023-12-14T11:38:40;101567.25;;;7.80;100.00
78407;BME280;67692;51.074;-1.790;2023-12-14T11:41:07;101579.25;;;7.81;100.00
78407;BME280;67692;51.074;-1.790;2023-12-14T11:43:39;101580.81;;;7.85;100.00
78407;BME280;67692;51.074;-1.790;2023-12-14T11:46:08;101579.84;;;7.87;100.00
78407;BME280;67692;51.074;-1.790;2023-12-14T11:48:34;101577.19;;;7.89;100.00
78407;BME280;67692;51.074;-1.790;2023-12-14T11:51:01;101580.47;;;7.92;100.00
78407;BME280;67692;51.074;-1.790;2023-12-14T11:53:29;101578.53;;;7.97;100.00
78407;BME280;67692;51.074;-1.790;2023-12-14T11:55:56;101579.31;;;7.99;100.00
78407;BME280;67692;51.074;-1.790;2023-12-14T11:58:24;101580.06;;;8.01;100.00
78407;BME280;67692;51.074;-1.790;2023-12-14T12:00:51;101582.50;;;8.04;100.00
78407;BME280;67692;51.074;-1.790;2023-12-14T12:03:20;101573.88;;;8.05;100.00
78407;BME280;67692;51.074;-1.790;2023-12-14T12:05:48;101579.78;;;8.07;100.00
78407;BME280;67692;51.074;-1.790;2023-12-14T12:08:19;101584.84;;;8.11;100.00
78407;BME280;67692;51.074;-1.790;2023-12-14T12:10:47;101585.59;;;8.13;100.00
78407;BME280;67692;51.074;-1.790;2023-12-14T12:13:15;101577.03;;;8.12;100.00
78407;BME280;67692;51.074;-1.790;2023-12-14T12:15:43;101572.50;;;8.17;100.00
78407;BME280;67692;51.074;-1.790;2023-12-14T12:18:11;101568.03;;;8.21;100.00
78407;BME280;67692;51.074;-1.790;2023-12-14T12:20:39;101564.47;;;8.23;100.00
78407;BME280;67692;51.074;-1.790;2023-12-14T12:23:06;101572.09;;;8.26;100.00
78407;BME280;67692;51.074;-1.790;2023-12-14T12:25:34;101573.53;;;8.32;100.00
78407;BME280;67692;51.074;-1.790;2023-12-14T12:28:01;101570.97;;;8.32;100.00
78407;BME280;67692;51.074;-1.790;2023-12-14T12:30:29;101582.06;;;8.34;100.00
78407;BME280;67692;51.074;-1.790;2023-12-14T12:32:55;101576.78;;;8.37;100.00
78407;BME280;67692;51.074;-1.790;2023-12-14T12:35:23;101582.72;;;8.39;100.00
78407;BME280;67692;51.074;-1.790;2023-12-14T12:37:52;101584.25;;;8.43;100.00
78407;BME280;67692;51.074;-1.790;2023-12-14T12:40:19;101585.03;;;8.45;100.00
78407;BME280;67692;51.074;-1.790;2023-12-14T12:42:46;101583.81;;;8.52;100.00
78407;BME280;67692;51.074;-1.790;2023-12-14T12:45:15;101583.78;;;8.54;100.00
78407;BME280;67692;51.074;-1.790;2023-12-14T12:47:42;101581.88;;;8.57;100.00